sensor_id;sensor_type;location;lat;lon;timestamp;temperature;humidity
17944;DHT22;9097;47.028;15.444;2023-03-01T00:01:11;4.00;99.90
17944;DHT22;9097;47.028;15.444;2023-03-01T00:04:14;4.10;99.90
17944;DHT22;9097;47.028;15.444;2023-03-01T00:07:16;4.20;99.90
17944;DHT22;9097;47.028;15.444;2023-03-01T00:10:18;4.30;99.90
17944;DHT22;9097;47.028;15.444;2023-03-01T00:13:21;4.40;99.90
17944;DHT22;9097;47.028;15.444;2023-03-01T00:16:26;4.20;99.90
17944;DHT22;9097;47.028;15.444;2023-03-01T00:19:28;4.10;99.90
17944;DHT22;9097;47.028;15.444;2023-03-01T00:22:30;4.10;99.90
17944;DHT22;9097;47.028;15.444;2023-03-01T00:25:33;4.10;99.90
17944;DHT22;9097;47.028;15.444;2023-03-01T00:28:36;4.10;99.90
17944;DHT22;9097;47.028;15.444;2023-03-01T00:31:40;4.20;99.90
17944;DHT22;9097;47.028;15.444;2023-03-01T00:34:42;4.00;99.90
17944;DHT22;9097;47.028;15.444;2023-03-01T00:37:55;4.00;99.90
17944;DHT22;9097;47.028;15.444;2023-03-01T00:41:03;4.10;99.90
17944;DHT22;9097;47.028;15.444;2023-03-01T00:44:06;4.10;99.90
17944;DHT22;9097;47.028;15.444;2023-03-01T00:47:10;4.10;99.90
17944;DHT22;9097;47.028;15.444;2023-03-01T00:50:12;4.00;99.90
17944;DHT22;9097;47.028;15.444;2023-03-01T00:53:14;4.10;99.90
17944;DHT22;9097;47.028;15.444;2023-03-01T00:56:17;4.10;99.90
17944;DHT22;9097;47.028;15.444;2023-03-01T00:59:19;4.00;99.90
17944;DHT22;9097;47.028;15.444;2023-03-01T01:02:23;4.00;99.90
17944;DHT22;9097;47.028;15.444;2023-03-01T01:05:25;3.80;99.90
17944;DHT22;9097;47.028;15.444;2023-03-01T01:08:27;3.90;99.90
17944;DHT22;9097;47.028;15.444;2023-03-01T01:11:30;3.90;99.90
17944;DHT22;9097;47.028;15.444;2023-03-01T01:14:32;3.70;99.90
17944;DHT22;9097;47.028;15.444;2023-03-01T01:17:36;3.70;99.90
17944;DHT22;9097;47.028;15.444;2023-03-01T01:20:38;3.70;99.90
17944;DHT22;9097;47.028;15.444;2023-03-01T01:23:41;3.80;99.90
17944;DHT22;9097;47.028;15.444;2023-03-01T01:26:44;3.90;99.90
17944;DHT22;9097;47.028;15.444;2023-03-01T01:29:46;4.00;99.90
17944;DHT22;9097;47.028;15.444;2023-03-01T01:32:49;4.10;99.90
17944;DHT22;9097;47.028;15.444;2023-03-01T01:35:52;4.20;99.90
17944;DHT22;9097;47.028;15.444;2023-03-01T01:38:54;4.20;99.90
17944;DHT22;9097;47.028;15.444;2023-03-01T01:41:56;4.10;99.90
17944;DHT22;9097;47.028;15.444;2023-03-01T01:45:31;4.20;99.90
17944;DHT22;9097;47.028;15.444;2023-03-01T01:48:40;4.20;99.90
17944;DHT22;9097;47.028;15.444;2023-03-01T01:51:45;4.30;99.90
17944;DHT22;9097;47.028;15.444;2023-03-01T01:54:51;4.40;99.90
17944;DHT22;9097;47.028;15.444;2023-03-01T01:57:58;4.10;99.90
17944;DHT22;9097;47.028;15.444;2023-03-01T02:01:01;4.20;99.90
17944;DHT22;9097;47.028;15.444;2023-03-01T02:04:06;4.20;99.90
17944;DHT22;9097;47.028;15.444;2023-03-01T02:07:15;4.00;99.90
17944;DHT22;9097;47.028;15.444;2023-03-01T02:10:18;4.10;99.90
17944;DHT22;9097;47.028;15.444;2023-03-01T02:13:20;3.80;99.90
17944;DHT22;9097;47.028;15.444;2023-03-01T02:16:22;3.90;99.90
17944;DHT22;9097;47.028;15.444;2023-03-01T02:19:39;4.00;99.90
17944;DHT22;9097;47.028;15.444;2023-03-01T02:22:45;3.90;99.90
17944;DHT22;9097;47.028;15.444;2023-03-01T02:25:54;3.80;99.90
17944;DHT22;9097;47.028;15.444;2023-03-01T02:28:58;3.80;99.90
17944;DHT22;9097;47.028;15.444;2023-03-01T02:32:02;3.80;99.90
17944;DHT22;9097;47.028;15.444;2023-03-01T02:35:06;3.70;99.90
17944;DHT22;9097;47.028;15.444;2023-03-01T02:38:09;3.70;99.90
17944;DHT22;9097;47.028;15.444;2023-03-01T02:41:15;3.80;99.90
17944;DHT22;9097;47.028;15.444;2023-03-01T02:44:19;3.90;99.90
17944;DHT22;9097;47.028;15.444;2023-03-01T02:47:21;3.60;99.90
17944;DHT22;9097;47.028;15.444;2023-03-01T02:50:41;3.70;99.90
17944;DHT22;9097;47.028;15.444;2023-03-01T02:53:52;3.70;99.90
17944;DHT22;9097;47.028;15.444;2023-03-01T02:56:56;3.70;99.90
17944;DHT22;9097;47.028;15.444;2023-03-01T03:00:04;3.80;99.90
17944;DHT22;9097;47.028;15.444;2023-03-01T03:03:10;3.80;99.90
17944;DHT22;9097;47.028;15.444;2023-03-01T03:06:13;3.90;99.90
17944;DHT22;9097;47.028;15.444;2023-03-01T03:09:15;3.80;99.90
17944;DHT22;9097;47.028;15.444;2023-03-01T03:12:18;3.80;99.90
17944;DHT22;9097;47.028;15.444;2023-03-01T03:15:21;3.80;99.90
17944;DHT22;9097;47.028;15.444;2023-03-01T03:18:24;3.80;99.90
17944;DHT22;9097;47.028;15.444;2023-03-01T03:21:27;3.80;99.90
17944;DHT22;9097;47.028;15.444;2023-03-01T03:24:30;3.70;99.90
17944;DHT22;9097;47.028;15.444;2023-03-01T03:27:39;4.00;99.90
17944;DHT22;9097;47.028;15.444;2023-03-01T03:30:43;4.00;99.90
17944;DHT22;9097;47.028;15.444;2023-03-01T03:33:46;3.90;99.90
17944;DHT22;9097;47.028;15.444;2023-03-01T03:36:49;3.80;99.90
17944;DHT22;9097;47.028;15.444;2023-03-01T03:39:58;4.00;99.90
17944;DHT22;9097;47.028;15.444;2023-03-01T03:43:00;3.90;99.90
17944;DHT22;9097;47.028;15.444;2023-03-01T03:46:05;4.00;99.90
17944;DHT22;9097;47.028;15.444;2023-03-01T03:49:08;4.00;99.90
17944;DHT22;9097;47.028;15.444;2023-03-01T03:52:10;4.00;99.90
17944;DHT22;9097;47.028;15.444;2023-03-01T03:55:14;4.00;99.90
17944;DHT22;9097;47.028;15.444;2023-03-01T03:58:21;3.90;99.90
17944;DHT22;9097;47.028;15.444;2023-03-01T04:01:26;4.00;99.90
17944;DHT22;9097;47.028;15.444;2023-03-01T04:04:28;3.80;99.90
17944;DHT22;9097;47.028;15.444;2023-03-01T04:07:31;4.00;99.90
17944;DHT22;9097;47.028;15.444;2023-03-01T04:10:35;3.90;99.90
17944;DHT22;9097;47.028;15.444;2023-03-01T04:13:38;4.10;99.90
17944;DHT22;9097;47.028;15.444;2023-03-01T04:16:42;4.00;99.90
17944;DHT22;9097;47.028;15.444;2023-03-01T04:19:44;3.80;99.90
17944;DHT22;9097;47.028;15.444;2023-03-01T04:22:49;3.80;99.90
17944;DHT22;9097;47.028;15.444;2023-03-01T04:25:54;3.90;99.90
17944;DHT22;9097;47.028;15.444;2023-03-01T04:28:56;3.90;99.90
17944;DHT22;9097;47.028;15.444;2023-03-01T04:32:00;3.90;99.90
17944;DHT22;9097;47.028;15.444;2023-03-01T04:35:04;3.80;99.90
17944;DHT22;9097;47.028;15.444;2023-03-01T04:38:06;3.90;99.90
17944;DHT22;9097;47.028;15.444;2023-03-01T04:41:10;4.00;99.90
17944;DHT22;9097;47.028;15.444;2023-03-01T04:44:12;4.10;99.90
17944;DHT22;9097;47.028;15.444;2023-03-01T04:47:16;4.00;99.90
17944;DHT22;9097;47.028;15.444;2023-03-01T04:50:19;4.10;99.90
17944;DHT22;9097;47.028;15.444;2023-03-01T04:53:23;4.20;99.90
17944;DHT22;9097;47.028;15.444;2023-03-01T04:56:26;4.00;99.90
17944;DHT22;9097;47.028;15.444;2023-03-01T04:59:28;4.00;99.90
17944;DHT22;9097;47.028;15.444;2023-03-01T05:02:32;3.90;99.90
17944;DHT22;9097;47.028;15.444;2023-03-01T05:05:36;3.80;99.90
17944;DHT22;9097;47.028;15.444;2023-03-01T05:08:40;3.80;99.90
17944;DHT22;9097;47.028;15.444;2023-03-01T05:11:42;3.80;99.90
17944;DHT22;9097;47.028;15.444;2023-03-01T05:14:45;3.80;99.90
17944;DHT22;9097;47.028;15.444;2023-03-01T05:17:49;3.80;99.90
17944;DHT22;9097;47.028;15.444;2023-03-01T05:20:52;3.80;99.90
17944;DHT22;9097;47.028;15.444;2023-03-01T05:23:56;3.70;99.90
17944;DHT22;9097;47.028;15.444;2023-03-01T05:26:59;3.90;99.90
17944;DHT22;9097;47.028;15.444;2023-03-01T05:30:03;3.90;99.90
17944;DHT22;9097;47.028;15.444;2023-03-01T05:33:15;3.80;99.90
17944;DHT22;9097;47.028;15.444;2023-03-01T05:36:17;3.90;99.90
17944;DHT22;9097;47.028;15.444;2023-03-01T05:39:20;3.80;99.90
17944;DHT22;9097;47.028;15.444;2023-03-01T05:42:23;3.90;99.90
17944;DHT22;9097;47.028;15.444;2023-03-01T05:45:27;3.70;99.90
17944;DHT22;9097;47.028;15.444;2023-03-01T05:48:31;3.90;99.90
17944;DHT22;9097;47.028;15.444;2023-03-01T05:51:33;4.00;99.90
17944;DHT22;9097;47.028;15.444;2023-03-01T05:54:36;4.00;99.90
17944;DHT22;9097;47.028;15.444;2023-03-01T05:57:39;4.00;99.90
17944;DHT22;9097;47.028;15.444;2023-03-01T06:00:42;4.10;99.90
17944;DHT22;9097;47.028;15.444;2023-03-01T06:03:46;4.10;99.90
17944;DHT22;9097;47.028;15.444;2023-03-01T06:06:48;4.10;99.90
17944;DHT22;9097;47.028;15.444;2023-03-01T06:09:50;4.00;99.90
17944;DHT22;9097;47.028;15.444;2023-03-01T06:12:53;3.90;99.90
17944;DHT22;9097;47.028;15.444;2023-03-01T06:15:56;3.90;99.90
17944;DHT22;9097;47.028;15.444;2023-03-01T06:18:59;4.00;99.90
17944;DHT22;9097;47.028;15.444;2023-03-01T06:22:02;3.90;99.90
17944;DHT22;9097;47.028;15.444;2023-03-01T06:25:06;4.00;99.90
17944;DHT22;9097;47.028;15.444;2023-03-01T06:28:09;4.10;99.90
17944;DHT22;9097;47.028;15.444;2023-03-01T06:31:11;4.00;99.90
17944;DHT22;9097;47.028;15.444;2023-03-01T06:34:15;4.00;99.90
17944;DHT22;9097;47.028;15.444;2023-03-01T06:37:18;4.10;99.90
17944;DHT22;9097;47.028;15.444;2023-03-01T06:40:20;4.00;99.90
17944;DHT22;9097;47.028;15.444;2023-03-01T06:43:23;4.10;99.90
17944;DHT22;9097;47.028;15.444;2023-03-01T06:46:26;4.00;99.90
17944;DHT22;9097;47.028;15.444;2023-03-01T06:49:29;4.00;99.90
17944;DHT22;9097;47.028;15.444;2023-03-01T06:52:32;3.80;99.90
17944;DHT22;9097;47.028;15.444;2023-03-01T06:55:34;4.10;99.90
17944;DHT22;9097;47.028;15.444;2023-03-01T06:58:36;4.00;99.90
17944;DHT22;9097;47.028;15.444;2023-03-01T07:01:38;4.20;99.90
17944;DHT22;9097;47.028;15.444;2023-03-01T07:04:42;4.20;99.90
17944;DHT22;9097;47.028;15.444;2023-03-01T07:07:45;4.30;99.90
17944;DHT22;9097;47.028;15.444;2023-03-01T07:10:48;4.30;99.90
17944;DHT22;9097;47.028;15.444;2023-03-01T07:13:50;4.20;99.90
17944;DHT22;9097;47.028;15.444;2023-03-01T07:16:52;4.20;99.90
17944;DHT22;9097;47.028;15.444;2023-03-01T07:19:56;4.30;99.90
17944;DHT22;9097;47.028;15.444;2023-03-01T07:22:58;4.20;99.90
17944;DHT22;9097;47.028;15.444;2023-03-01T07:26:01;4.30;99.90
17944;DHT22;9097;47.028;15.444;2023-03-01T07:29:05;4.40;99.90
17944;DHT22;9097;47.028;15.444;2023-03-01T07:32:08;4.30;99.90
17944;DHT22;9097;47.028;15.444;2023-03-01T07:35:13;4.40;99.90
17944;DHT22;9097;47.028;15.444;2023-03-01T07:38:16;4.40;99.90
17944;DHT22;9097;47.028;15.444;2023-03-01T07:41:18;4.50;99.90
17944;DHT22;9097;47.028;15.444;2023-03-01T07:44:20;4.30;99.90
17944;DHT22;9097;47.028;15.444;2023-03-01T07:47:22;4.30;99.90
17944;DHT22;9097;47.028;15.444;2023-03-01T07:50:26;4.40;99.90
17944;DHT22;9097;47.028;15.444;2023-03-01T07:53:29;4.60;99.90
17944;DHT22;9097;47.028;15.444;2023-03-01T07:56:35;4.60;99.90
17944;DHT22;9097;47.028;15.444;2023-03-01T07:59:37;4.50;99.90
17944;DHT22;9097;47.028;15.444;2023-03-01T08:02:40;4.50;99.90
17944;DHT22;9097;47.028;15.444;2023-03-01T08:05:44;4.60;99.90
17944;DHT22;9097;47.028;15.444;2023-03-01T08:08:46;4.50;99.90
17944;DHT22;9097;47.028;15.444;2023-03-01T08:11:49;4.60;99.90
17944;DHT22;9097;47.028;15.444;2023-03-01T08:14:51;4.70;99.90
17944;DHT22;9097;47.028;15.444;2023-03-01T08:17:53;4.70;99.90
17944;DHT22;9097;47.028;15.444;2023-03-01T08:21:02;4.70;99.90
17944;DHT22;9097;47.028;15.444;2023-03-01T08:27:08;4.90;99.90
17944;DHT22;9097;47.028;15.444;2023-03-01T08:30:12;5.00;99.90
17944;DHT22;9097;47.028;15.444;2023-03-01T08:33:15;5.00;99.90
17944;DHT22;9097;47.028;15.444;2023-03-01T08:39:21;5.00;99.90
17944;DHT22;9097;47.028;15.444;2023-03-01T08:42:24;5.20;99.90
17944;DHT22;9097;47.028;15.444;2023-03-01T08:45:26;5.30;99.90
17944;DHT22;9097;47.028;15.444;2023-03-01T08:48:28;5.10;99.90
17944;DHT22;9097;47.028;15.444;2023-03-01T08:51:32;5.20;99.90
17944;DHT22;9097;47.028;15.444;2023-03-01T08:54:37;5.20;99.90
17944;DHT22;9097;47.028;15.444;2023-03-01T08:57:40;5.20;99.90
17944;DHT22;9097;47.028;15.444;2023-03-01T09:00:42;5.40;99.90
17944;DHT22;9097;47.028;15.444;2023-03-01T09:03:45;5.30;99.90
17944;DHT22;9097;47.028;15.444;2023-03-01T09:06:49;5.40;99.90
17944;DHT22;9097;47.028;15.444;2023-03-01T09:09:51;5.40;99.90
17944;DHT22;9097;47.028;15.444;2023-03-01T09:12:55;5.20;99.90
17944;DHT22;9097;47.028;15.444;2023-03-01T09:15:57;5.20;99.90
17944;DHT22;9097;47.028;15.444;2023-03-01T09:18:59;5.20;99.90
17944;DHT22;9097;47.028;15.444;2023-03-01T09:22:05;5.40;99.90
17944;DHT22;9097;47.028;15.444;2023-03-01T09:25:07;5.40;99.90
17944;DHT22;9097;47.028;15.444;2023-03-01T09:28:10;5.30;99.90
17944;DHT22;9097;47.028;15.444;2023-03-01T09:31:14;5.40;99.90
17944;DHT22;9097;47.028;15.444;2023-03-01T09:34:17;5.20;99.90
17944;DHT22;9097;47.028;15.444;2023-03-01T09:37:26;5.40;99.90
17944;DHT22;9097;47.028;15.444;2023-03-01T09:40:29;5.40;99.90
17944;DHT22;9097;47.028;15.444;2023-03-01T09:43:40;5.40;99.90
17944;DHT22;9097;47.028;15.444;2023-03-01T09:46:45;5.40;99.90
17944;DHT22;9097;47.028;15.444;2023-03-01T09:49:53;5.40;99.90
17944;DHT22;9097;47.028;15.444;2023-03-01T09:53:05;5.40;99.90
17944;DHT22;9097;47.028;15.444;2023-03-01T09:56:16;5.50;99.90
17944;DHT22;9097;47.028;15.444;2023-03-01T09:59:26;5.60;99.90
17944;DHT22;9097;47.028;15.444;2023-03-01T10:02:38;5.60;99.90
17944;DHT22;9097;47.028;15.444;2023-03-01T10:05:47;5.40;99.90
17944;DHT22;9097;47.028;15.444;2023-03-01T10:08:55;5.40;99.90
17944;DHT22;9097;47.028;15.444;2023-03-01T10:12:00;5.30;99.90
17944;DHT22;9097;47.028;15.444;2023-03-01T10:15:09;5.30;99.90
17944;DHT22;9097;47.028;15.444;2023-03-01T10:18:16;5.30;99.90
17944;DHT22;9097;47.028;15.444;2023-03-01T10:21:20;5.40;99.90
17944;DHT22;9097;47.028;15.444;2023-03-01T10:24:25;5.40;99.90
17944;DHT22;9097;47.028;15.444;2023-03-01T10:27:34;5.20;99.90
17944;DHT22;9097;47.028;15.444;2023-03-01T10:30:41;5.40;99.90
17944;DHT22;9097;47.028;15.444;2023-03-01T10:33:44;5.30;99.90
17944;DHT22;9097;47.028;15.444;2023-03-01T10:36:50;5.40;99.90
17944;DHT22;9097;47.028;15.444;2023-03-01T10:40:03;5.40;99.90
17944;DHT22;9097;47.028;15.444;2023-03-01T10:43:11;5.30;99.90
17944;DHT22;9097;47.028;15.444;2023-03-01T10:46:28;5.30;99.90
17944;DHT22;9097;47.028;15.444;2023-03-01T10:49:31;5.40;99.90
17944;DHT22;9097;47.028;15.444;2023-03-01T10:52:35;5.40;99.90
17944;DHT22;9097;47.028;15.444;2023-03-01T10:55:40;5.40;99.90
17944;DHT22;9097;47.028;15.444;2023-03-01T10:58:57;5.50;99.90
17944;DHT22;9097;47.028;15.444;2023-03-01T11:02:26;5.40;99.90
17944;DHT22;9097;47.028;15.444;2023-03-01T11:05:30;5.50;99.90
17944;DHT22;9097;47.028;15.444;2023-03-01T11:08:37;5.40;99.90
17944;DHT22;9097;47.028;15.444;2023-03-01T11:11:41;5.40;99.90
17944;DHT22;9097;47.028;15.444;2023-03-01T11:14:47;5.40;99.90
17944;DHT22;9097;47.028;15.444;2023-03-01T11:17:50;5.40;99.90
17944;DHT22;9097;47.028;15.444;2023-03-01T11:20:55;5.50;99.90
17944;DHT22;9097;47.028;15.444;2023-03-01T11:24:00;5.50;99.90
17944;DHT22;9097;47.028;15.444;2023-03-01T11:27:08;5.30;99.90
17944;DHT22;9097;47.028;15.444;2023-03-01T11:30:20;5.40;99.90
17944;DHT22;9097;47.028;15.444;2023-03-01T11:33:35;5.20;99.90
17944;DHT22;9097;47.028;15.444;2023-03-01T11:36:42;5.40;99.90
17944;DHT22;9097;47.028;15.444;2023-03-01T11:39:53;5.50;99.90
17944;DHT22;9097;47.028;15.444;2023-03-01T11:43:05;5.60;99.90
17944;DHT22;9097;47.028;15.444;2023-03-01T11:46:29;5.60;99.90
17944;DHT22;9097;47.028;15.444;2023-03-01T11:49:51;5.70;99.90
17944;DHT22;9097;47.028;15.444;2023-03-01T11:53:09;5.70;99.90
17944;DHT22;9097;47.028;15.444;2023-03-01T11:56:22;5.70;99.90
17944;DHT22;9097;47.028;15.444;2023-03-01T11:59:54;5.70;99.90
17944;DHT22;9097;47.028;15.444;2023-03-01T12:03:27;5.80;99.90
17944;DHT22;9097;47.028;15.444;2023-03-01T12:06:40;5.90;99.90
17944;DHT22;9097;47.028;15.444;2023-03-01T12:10:09;5.70;99.90
17944;DHT22;9097;47.028;15.444;2023-03-01T12:13:36;5.90;99.90
17944;DHT22;9097;47.028;15.444;2023-03-01T12:20:28;6.10;99.90
17944;DHT22;9097;47.028;15.444;2023-03-01T12:26:50;6.20;99.90
17944;DHT22;9097;47.028;15.444;2023-03-01T12:30:09;6.20;99.90
17944;DHT22;9097;47.028;15.444;2023-03-01T12:33:24;6.20;99.90
17944;DHT22;9097;47.028;15.444;2023-03-01T12:36:48;6.40;99.90
17944;DHT22;9097;47.028;15.444;2023-03-01T12:40:11;6.60;99.90
17944;DHT22;9097;47.028;15.444;2023-03-01T12:43:27;6.50;99.90
17944;DHT22;9097;47.028;15.444;2023-03-01T12:49:48;6.60;99.90
17944;DHT22;9097;47.028;15.444;2023-03-01T12:56:00;6.80;99.90
17944;DHT22;9097;47.028;15.444;2023-03-01T12:59:12;6.80;99.90
17944;DHT22;9097;47.028;15.444;2023-03-01T13:02:24;6.70;99.90
17944;DHT22;9097;47.028;15.444;2023-03-01T13:05:37;6.60;99.90
17944;DHT22;9097;47.028;15.444;2023-03-01T13:08:46;6.60;99.90
17944;DHT22;9097;47.028;15.444;2023-03-01T13:11:50;6.70;99.90
17944;DHT22;9097;47.028;15.444;2023-03-01T13:14:54;6.70;99.90
17944;DHT22;9097;47.028;15.444;2023-03-01T13:17:58;6.60;99.90
17944;DHT22;9097;47.028;15.444;2023-03-01T13:21:04;6.60;99.90
17944;DHT22;9097;47.028;15.444;2023-03-01T13:24:25;6.70;99.90
17944;DHT22;9097;47.028;15.444;2023-03-01T13:27:27;6.80;99.90
17944;DHT22;9097;47.028;15.444;2023-03-01T13:30:41;6.90;99.90
17944;DHT22;9097;47.028;15.444;2023-03-01T13:33:45;7.00;99.90
17944;DHT22;9097;47.028;15.444;2023-03-01T13:36:49;7.20;99.90
17944;DHT22;9097;47.028;15.444;2023-03-01T13:39:52;6.80;99.90
17944;DHT22;9097;47.028;15.444;2023-03-01T13:42:55;7.20;99.90
17944;DHT22;9097;47.028;15.444;2023-03-01T13:45:58;7.10;99.90
17944;DHT22;9097;47.028;15.444;2023-03-01T13:49:01;6.90;99.90
17944;DHT22;9097;47.028;15.444;2023-03-01T13:52:05;6.80;99.90
17944;DHT22;9097;47.028;15.444;2023-03-01T13:55:18;6.80;99.90
17944;DHT22;9097;47.028;15.444;2023-03-01T13:58:25;7.00;99.90
17944;DHT22;9097;47.028;15.444;2023-03-01T14:01:29;7.10;99.90
17944;DHT22;9097;47.028;15.444;2023-03-01T14:04:33;7.10;99.90
17944;DHT22;9097;47.028;15.444;2023-03-01T14:07:38;6.90;99.90
17944;DHT22;9097;47.028;15.444;2023-03-01T14:10:53;6.80;99.90
17944;DHT22;9097;47.028;15.444;2023-03-01T14:14:14;6.80;99.90
17944;DHT22;9097;47.028;15.444;2023-03-01T14:17:37;6.80;99.90
17944;DHT22;9097;47.028;15.444;2023-03-01T14:20:42;6.70;99.90
17944;DHT22;9097;47.028;15.444;2023-03-01T14:23:47;6.80;99.90
17944;DHT22;9097;47.028;15.444;2023-03-01T14:26:50;7.00;99.90
17944;DHT22;9097;47.028;15.444;2023-03-01T14:29:58;7.10;99.90
17944;DHT22;9097;47.028;15.444;2023-03-01T14:33:02;7.00;99.90
17944;DHT22;9097;47.028;15.444;2023-03-01T14:36:06;7.00;99.90
17944;DHT22;9097;47.028;15.444;2023-03-01T14:39:19;7.00;99.90
17944;DHT22;9097;47.028;15.444;2023-03-01T14:42:23;7.20;99.90
17944;DHT22;9097;47.028;15.444;2023-03-01T14:45:29;7.20;99.90
17944;DHT22;9097;47.028;15.444;2023-03-01T14:48:32;7.10;99.90
17944;DHT22;9097;47.028;15.444;2023-03-01T14:51:39;6.90;99.90
17944;DHT22;9097;47.028;15.444;2023-03-01T14:54:46;6.80;99.90
17944;DHT22;9097;47.028;15.444;2023-03-01T14:57:50;6.70;99.90
17944;DHT22;9097;47.028;15.444;2023-03-01T15:00:54;6.80;99.90
17944;DHT22;9097;47.028;15.444;2023-03-01T15:03:57;6.90;99.90
17944;DHT22;9097;47.028;15.444;2023-03-01T15:07:02;6.80;99.90
17944;DHT22;9097;47.028;15.444;2023-03-01T15:10:14;6.80;99.90
17944;DHT22;9097;47.028;15.444;2023-03-01T15:13:22;6.70;99.90
17944;DHT22;9097;47.028;15.444;2023-03-01T15:16:26;6.60;99.90
17944;DHT22;9097;47.028;15.444;2023-03-01T15:19:29;6.40;99.90
17944;DHT22;9097;47.028;15.444;2023-03-01T15:22:31;6.50;99.90
17944;DHT22;9097;47.028;15.444;2023-03-01T15:25:35;6.40;99.90
17944;DHT22;9097;47.028;15.444;2023-03-01T15:28:49;6.70;99.90
17944;DHT22;9097;47.028;15.444;2023-03-01T15:31:57;6.50;99.90
17944;DHT22;9097;47.028;15.444;2023-03-01T15:35:01;6.70;99.90
17944;DHT22;9097;47.028;15.444;2023-03-01T15:38:29;6.50;99.90
17944;DHT22;9097;47.028;15.444;2023-03-01T15:41:46;6.70;99.90
17944;DHT22;9097;47.028;15.444;2023-03-01T15:44:49;6.60;99.90
17944;DHT22;9097;47.028;15.444;2023-03-01T15:47:52;6.60;99.90
17944;DHT22;9097;47.028;15.444;2023-03-01T15:50:56;6.60;99.90
17944;DHT22;9097;47.028;15.444;2023-03-01T15:54:02;6.70;99.90
17944;DHT22;9097;47.028;15.444;2023-03-01T15:57:10;6.70;99.90
17944;DHT22;9097;47.028;15.444;2023-03-01T16:00:15;6.80;99.90
17944;DHT22;9097;47.028;15.444;2023-03-01T16:03:18;6.60;99.90
17944;DHT22;9097;47.028;15.444;2023-03-01T16:06:22;6.70;99.90
17944;DHT22;9097;47.028;15.444;2023-03-01T16:09:25;6.60;99.90
17944;DHT22;9097;47.028;15.444;2023-03-01T16:12:29;6.50;99.90
17944;DHT22;9097;47.028;15.444;2023-03-01T16:15:33;6.50;99.90
17944;DHT22;9097;47.028;15.444;2023-03-01T16:18:36;6.50;99.90
17944;DHT22;9097;47.028;15.444;2023-03-01T16:21:39;6.40;99.90
17944;DHT22;9097;47.028;15.444;2023-03-01T16:24:41;6.50;99.90
17944;DHT22;9097;47.028;15.444;2023-03-01T16:27:47;6.50;99.90
17944;DHT22;9097;47.028;15.444;2023-03-01T16:30:50;6.30;99.90
17944;DHT22;9097;47.028;15.444;2023-03-01T16:33:54;6.60;99.90
17944;DHT22;9097;47.028;15.444;2023-03-01T16:36:56;6.40;99.90
17944;DHT22;9097;47.028;15.444;2023-03-01T16:39:59;6.50;99.90
17944;DHT22;9097;47.028;15.444;2023-03-01T16:43:03;6.40;99.90
17944;DHT22;9097;47.028;15.444;2023-03-01T16:46:10;6.30;99.90
17944;DHT22;9097;47.028;15.444;2023-03-01T16:49:13;6.20;99.90
17944;DHT22;9097;47.028;15.444;2023-03-01T16:52:15;6.40;99.90
17944;DHT22;9097;47.028;15.444;2023-03-01T16:55:17;6.30;99.90
17944;DHT22;9097;47.028;15.444;2023-03-01T16:58:21;6.20;99.90
17944;DHT22;9097;47.028;15.444;2023-03-01T17:01:25;6.20;99.90
17944;DHT22;9097;47.028;15.444;2023-03-01T17:04:33;6.30;99.90
17944;DHT22;9097;47.028;15.444;2023-03-01T17:07:35;6.20;99.90
17944;DHT22;9097;47.028;15.444;2023-03-01T17:10:38;6.20;99.90
17944;DHT22;9097;47.028;15.444;2023-03-01T17:13:42;6.20;99.90
17944;DHT22;9097;47.028;15.444;2023-03-01T17:16:45;6.10;99.90
17944;DHT22;9097;47.028;15.444;2023-03-01T17:19:47;5.90;99.90
17944;DHT22;9097;47.028;15.444;2023-03-01T17:22:49;5.80;99.90
17944;DHT22;9097;47.028;15.444;2023-03-01T17:25:53;5.70;99.90
17944;DHT22;9097;47.028;15.444;2023-03-01T17:28:57;5.60;99.90
17944;DHT22;9097;47.028;15.444;2023-03-01T17:31:59;5.60;99.90
17944;DHT22;9097;47.028;15.444;2023-03-01T17:35:02;5.70;99.90
17944;DHT22;9097;47.028;15.444;2023-03-01T17:38:05;5.70;99.90
17944;DHT22;9097;47.028;15.444;2023-03-01T17:41:08;5.50;99.90
17944;DHT22;9097;47.028;15.444;2023-03-01T17:44:13;5.60;99.90
17944;DHT22;9097;47.028;15.444;2023-03-01T17:47:15;5.50;99.90
17944;DHT22;9097;47.028;15.444;2023-03-01T17:50:17;5.60;99.90
17944;DHT22;9097;47.028;15.444;2023-03-01T17:53:20;5.70;99.90
17944;DHT22;9097;47.028;15.444;2023-03-01T17:56:22;5.70;99.90
17944;DHT22;9097;47.028;15.444;2023-03-01T17:59:26;5.70;99.90
17944;DHT22;9097;47.028;15.444;2023-03-01T18:02:31;5.60;99.90
17944;DHT22;9097;47.028;15.444;2023-03-01T18:05:39;5.60;99.90
17944;DHT22;9097;47.028;15.444;2023-03-01T18:08:42;5.70;99.90
17944;DHT22;9097;47.028;15.444;2023-03-01T18:11:45;5.70;99.90
17944;DHT22;9097;47.028;15.444;2023-03-01T18:14:49;5.80;99.90
17944;DHT22;9097;47.028;15.444;2023-03-01T18:17:53;5.80;99.90
17944;DHT22;9097;47.028;15.444;2023-03-01T18:20:56;5.90;99.90
17944;DHT22;9097;47.028;15.444;2023-03-01T18:23:59;5.80;99.90
17944;DHT22;9097;47.028;15.444;2023-03-01T18:27:02;5.80;99.90
17944;DHT22;9097;47.028;15.444;2023-03-01T18:30:08;5.90;99.90
17944;DHT22;9097;47.028;15.444;2023-03-01T18:33:10;5.90;99.90
17944;DHT22;9097;47.028;15.444;2023-03-01T18:36:19;5.90;99.90
17944;DHT22;9097;47.028;15.444;2023-03-01T18:39:22;5.80;99.90
17944;DHT22;9097;47.028;15.444;2023-03-01T18:42:24;5.80;99.90
17944;DHT22;9097;47.028;15.444;2023-03-01T18:45:30;5.90;99.90
17944;DHT22;9097;47.028;15.444;2023-03-01T18:48:32;5.90;99.90
17944;DHT22;9097;47.028;15.444;2023-03-01T18:51:36;6.00;99.90
17944;DHT22;9097;47.028;15.444;2023-03-01T18:54:39;5.80;99.90
17944;DHT22;9097;47.028;15.444;2023-03-01T18:57:41;5.90;99.90
17944;DHT22;9097;47.028;15.444;2023-03-01T19:00:45;5.80;99.90
17944;DHT22;9097;47.028;15.444;2023-03-01T19:03:47;5.80;99.90
17944;DHT22;9097;47.028;15.444;2023-03-01T19:06:50;5.90;99.90
17944;DHT22;9097;47.028;15.444;2023-03-01T19:09:52;5.90;99.90
17944;DHT22;9097;47.028;15.444;2023-03-01T19:12:54;6.00;99.90
17944;DHT22;9097;47.028;15.444;2023-03-01T19:16:04;6.00;99.90
17944;DHT22;9097;47.028;15.444;2023-03-01T19:19:07;6.10;99.90
17944;DHT22;9097;47.028;15.444;2023-03-01T19:22:09;5.90;99.90
17944;DHT22;9097;47.028;15.444;2023-03-01T19:25:12;6.00;99.90
17944;DHT22;9097;47.028;15.444;2023-03-01T19:28:14;5.90;99.90
17944;DHT22;9097;47.028;15.444;2023-03-01T19:31:19;5.80;99.90
17944;DHT22;9097;47.028;15.444;2023-03-01T19:34:24;5.80;99.90
17944;DHT22;9097;47.028;15.444;2023-03-01T19:37:26;6.00;99.90
17944;DHT22;9097;47.028;15.444;2023-03-01T19:40:28;5.90;99.90
17944;DHT22;9097;47.028;15.444;2023-03-01T19:43:31;6.00;99.90
17944;DHT22;9097;47.028;15.444;2023-03-01T19:46:35;5.90;99.90
17944;DHT22;9097;47.028;15.444;2023-03-01T19:49:38;6.00;99.90
17944;DHT22;9097;47.028;15.444;2023-03-01T19:52:40;6.00;99.90
17944;DHT22;9097;47.028;15.444;2023-03-01T19:55:42;6.00;99.90
17944;DHT22;9097;47.028;15.444;2023-03-01T19:58:45;5.90;99.90
17944;DHT22;9097;47.028;15.444;2023-03-01T20:01:51;5.90;99.90
17944;DHT22;9097;47.028;15.444;2023-03-01T20:04:55;5.90;99.90
17944;DHT22;9097;47.028;15.444;2023-03-01T20:07:58;5.90;99.90